createdAt,value
2022-10-23T00:01:40.301Z,70.90
2022-10-23T00:04:19.562Z,70.50
2022-10-23T00:06:48.657Z,70.67
2022-10-23T00:09:19.593Z,71.38
2022-10-23T00:11:48.333Z,71.19
2022-10-23T00:14:18.268Z,70.81
2022-10-23T00:16:46.061Z,70.90
2022-10-23T00:19:13.504Z,70.59
2022-10-23T00:21:45.207Z,71.21
2022-10-23T00:24:12.753Z,70.58
2022-10-23T00:26:40.886Z,70.44
2022-10-23T00:29:09.790Z,70.71
2022-10-23T00:31:38.604Z,70.84
2022-10-23T00:34:08.737Z,70.40
2022-10-23T00:36:38.205Z,71.28
2022-10-23T00:39:09.031Z,70.91
2022-10-23T00:41:50.295Z,70.79
2022-10-23T00:44:20.448Z,71.49
2022-10-23T00:46:48.059Z,70.63
2022-10-23T00:49:16.388Z,71.35
2022-10-23T00:51:48.140Z,71.70
2022-10-23T00:54:23.868Z,71.05
2022-10-23T00:56:58.057Z,72.06
2022-10-23T00:59:25.717Z,71.35
2022-10-23T01:01:53.458Z,72.00
2022-10-23T01:04:21.908Z,72.11
2022-10-23T01:07:31.386Z,71.75
2022-10-23T01:10:23.781Z,71.44
2022-10-23T01:13:02.587Z,71.25
2022-10-23T01:15:38.141Z,71.90
2022-10-23T01:18:13.446Z,71.43
2022-10-23T01:20:55.090Z,71.76
2022-10-23T01:23:59.846Z,72.12
2022-10-23T01:26:36.150Z,71.72
2022-10-23T01:29:23.863Z,72.59
2022-10-23T01:32:13.661Z,72.54
2022-10-23T01:34:57.617Z,72.38
2022-10-23T01:37:31.496Z,71.82
2022-10-23T01:40:05.689Z,71.78
2022-10-23T01:42:39.008Z,72.06
2022-10-23T01:45:45.222Z,72.10
2022-10-23T01:48:22.168Z,72.24
2022-10-23T01:50:51.926Z,73.03
2022-10-23T01:53:20.777Z,71.89
2022-10-23T01:55:50.148Z,72.50
2022-10-23T01:58:24.998Z,72.30
2022-10-23T02:00:56.079Z,72.40
2022-10-23T02:03:24.921Z,73.00
2022-10-23T02:05:52.605Z,73.12
2022-10-23T02:08:20.197Z,72.03
2022-10-23T02:13:37.737Z,72.52
2022-10-23T02:16:19.707Z,72.61
2022-10-23T02:19:06.679Z,71.87
2022-10-23T02:21:55.465Z,72.65
2022-10-23T02:24:52.238Z,71.92
2022-10-23T02:27:51.142Z,72.71
2022-10-23T02:30:20.692Z,72.14
2022-10-23T02:33:11.167Z,71.95
2022-10-23T02:35:38.839Z,72.04
2022-10-23T02:38:34.581Z,71.85
2022-10-23T02:41:27.738Z,72.89
2022-10-23T02:44:13.683Z,72.29
2022-10-23T02:46:46.919Z,72.60
2022-10-23T02:49:42.229Z,72.17
2022-10-23T02:52:22.124Z,72.20
2022-10-23T02:54:49.501Z,72.13
2022-10-23T02:57:25.373Z,72.72
2022-10-23T03:00:05.246Z,71.92
2022-10-23T03:02:59.346Z,71.85
2022-10-23T03:05:39.042Z,72.46
2022-10-23T03:08:09.834Z,72.82
2022-10-23T03:10:37.336Z,72.75
2022-10-23T03:13:07.202Z,72.40
2022-10-23T03:15:41.144Z,72.26
2022-10-23T03:18:12.695Z,72.74
2022-10-23T03:20:41.965Z,73.06
2022-10-23T03:23:13.307Z,72.25
2022-10-23T03:25:40.925Z,71.88
2022-10-23T03:28:08.466Z,71.91
2022-10-23T03:30:36.588Z,71.75
2022-10-23T03:33:04.155Z,71.60
2022-10-23T03:35:34.750Z,71.76
2022-10-23T03:38:02.403Z,71.38
2022-10-23T03:40:29.907Z,71.82
2022-10-23T03:42:57.458Z,71.26
2022-10-23T03:45:25.049Z,71.51
2022-10-23T03:47:52.542Z,71.54
2022-10-23T03:50:20.215Z,71.80
2022-10-23T03:52:48.351Z,71.17
2022-10-23T03:55:15.888Z,71.41
2022-10-23T03:57:43.353Z,70.89
2022-10-23T04:00:11.439Z,70.88
2022-10-23T04:02:45.253Z,71.04
2022-10-23T04:05:13.301Z,70.73
2022-10-23T04:07:49.199Z,70.85
2022-10-23T04:10:17.908Z,70.78
2022-10-23T04:12:46.168Z,70.29
2022-10-23T04:15:13.743Z,70.52
2022-10-23T04:17:44.531Z,70.74
2022-10-23T04:20:12.864Z,70.53
2022-10-23T04:22:40.596Z,70.54
2022-10-23T04:25:11.354Z,69.96
2022-10-23T04:27:39.609Z,70.30
2022-10-23T04:30:07.893Z,70.28
2022-10-23T04:32:35.491Z,69.71
2022-10-23T04:35:05.305Z,70.14
2022-10-23T04:37:32.929Z,70.01
2022-10-23T04:40:01.317Z,69.77
2022-10-23T04:42:30.416Z,70.40
2022-10-23T04:45:00.385Z,69.46
2022-10-23T04:47:28.773Z,69.92
2022-10-23T04:49:58.776Z,69.80
2022-10-23T04:52:45.092Z,69.66
2022-10-23T04:55:39.275Z,69.18
2022-10-23T04:58:17.178Z,68.86
2022-10-23T05:00:47.251Z,68.54
2022-10-23T05:03:22.470Z,68.90
2022-10-23T05:05:54.737Z,68.47
2022-10-23T05:08:28.226Z,68.28
2022-10-23T05:11:21.617Z,67.94
2022-10-23T05:13:51.127Z,67.67
2022-10-23T05:16:50.724Z,67.44
2022-10-23T05:19:26.775Z,67.61
2022-10-23T05:21:56.271Z,67.02
2022-10-23T05:24:33.342Z,66.95
2022-10-23T05:27:03.173Z,66.78
2022-10-23T05:29:32.135Z,66.15
2022-10-23T05:32:05.690Z,65.76
2022-10-23T05:34:36.860Z,64.83
2022-10-23T05:37:08.669Z,64.26
2022-10-23T05:39:38.558Z,63.67
2022-10-23T05:42:10.905Z,62.48
2022-10-23T05:44:39.461Z,61.92
2022-10-23T05:47:32.111Z,59.92
2022-10-23T05:50:12.994Z,55.47
2022-10-23T05:52:59.889Z,55.26
2022-10-23T05:55:47.360Z,50.65
2022-10-23T05:58:38.102Z,49.22
2022-10-23T06:01:31.275Z,47.11
2022-10-23T06:04:04.277Z,45.61
2022-10-23T06:06:57.278Z,44.53
2022-10-23T06:09:25.221Z,44.70
2022-10-23T06:11:57.430Z,43.64
2022-10-23T06:14:24.936Z,45.66
2022-10-23T06:16:53.001Z,46.83
2022-10-23T06:19:21.383Z,47.38
2022-10-23T06:21:53.153Z,47.84
2022-10-23T06:24:25.419Z,48.58
2022-10-23T06:26:57.242Z,48.90
2022-10-23T06:29:45.539Z,49.39
2022-10-23T06:32:13.475Z,49.44
2022-10-23T06:34:45.951Z,49.87
2022-10-23T06:37:13.458Z,50.08
2022-10-23T06:39:56.050Z,50.27
2022-10-23T06:42:35.758Z,51.22
2022-10-23T06:45:41.537Z,51.19
2022-10-23T06:48:15.743Z,51.85
2022-10-23T06:51:06.405Z,51.70
2022-10-23T06:53:39.729Z,51.19
2022-10-23T06:56:18.918Z,51.23
2022-10-23T06:58:46.586Z,50.42
2022-10-23T07:01:16.772Z,50.39
2022-10-23T07:03:45.769Z,49.54
2022-10-23T07:06:15.906Z,49.69
2022-10-23T07:08:43.666Z,48.57
2022-10-23T07:11:31.059Z,49.14
2022-10-23T07:13:58.994Z,49.39
2022-10-23T07:16:26.443Z,48.37
2022-10-23T07:18:59.802Z,47.58
2022-10-23T07:21:29.966Z,47.54
2022-10-23T07:24:09.009Z,48.62
2022-10-23T07:26:41.715Z,48.32
2022-10-23T07:29:09.587Z,48.17
2022-10-23T07:31:37.241Z,47.57
2022-10-23T07:34:25.343Z,46.92
2022-10-23T07:37:11.074Z,46.51
2022-10-23T07:39:38.675Z,45.10
2022-10-23T07:42:06.219Z,43.88
2022-10-23T07:44:35.047Z,42.87
2022-10-23T07:47:02.522Z,43.07
2022-10-23T07:49:31.026Z,42.51
2022-10-23T07:51:59.095Z,42.68
2022-10-23T07:54:35.327Z,40.96
2022-10-23T07:57:20.526Z,41.42
2022-10-23T07:59:56.634Z,41.54
2022-10-23T08:02:25.330Z,40.52
2022-10-23T08:04:53.603Z,39.21
2022-10-23T08:07:27.859Z,38.33
2022-10-23T08:10:00.610Z,38.93
2022-10-23T08:12:33.144Z,38.45
2022-10-23T08:15:00.745Z,38.53
2022-10-23T08:17:39.708Z,38.73
2022-10-23T08:20:14.341Z,38.53
2022-10-23T08:22:44.405Z,38.96
2022-10-23T08:25:14.574Z,39.56
2022-10-23T08:27:42.401Z,39.94
2022-10-23T08:30:10.625Z,40.12
2022-10-23T08:32:38.271Z,40.81
2022-10-23T08:35:06.654Z,40.35
2022-10-23T08:37:34.586Z,41.07
2022-10-23T08:40:04.435Z,41.45
2022-10-23T08:43:14.957Z,41.79
2022-10-23T08:46:08.557Z,42.00
2022-10-23T08:49:41.634Z,43.03
2022-10-23T08:52:14.900Z,42.93
2022-10-23T08:55:17.872Z,43.17
2022-10-23T08:58:15.267Z,43.19
2022-10-23T09:00:44.829Z,42.72
2022-10-23T09:03:13.522Z,42.69
2022-10-23T09:05:55.203Z,41.88
2022-10-23T09:08:34.474Z,41.86
2022-10-23T09:11:12.047Z,42.25
2022-10-23T09:13:55.322Z,42.05
2022-10-23T09:16:22.656Z,41.72
2022-10-23T09:18:50.968Z,41.33
2022-10-23T09:21:18.495Z,41.15
2022-10-23T09:23:45.929Z,41.21
2022-10-23T09:26:16.411Z,41.00
2022-10-23T09:28:50.130Z,40.54
2022-10-23T09:31:19.873Z,40.93
2022-10-23T09:33:58.290Z,40.89
2022-10-23T09:36:29.433Z,41.17
2022-10-23T09:38:59.599Z,41.31
2022-10-23T09:41:30.983Z,41.18
2022-10-23T09:44:21.379Z,40.53
2022-10-23T09:46:54.244Z,41.24
2022-10-23T09:49:27.619Z,41.59
2022-10-23T09:52:02.526Z,41.29
2022-10-23T09:54:33.643Z,41.65
2022-10-23T09:57:20.196Z,41.44
2022-10-23T10:00:00.025Z,41.37
2022-10-23T10:02:36.891Z,41.43
2022-10-23T10:05:39.152Z,41.59
2022-10-23T10:08:51.086Z,41.70
2022-10-23T10:11:28.495Z,41.59
2022-10-23T10:14:05.972Z,42.29
2022-10-23T10:16:33.407Z,42.66
2022-10-23T10:19:13.120Z,42.21
2022-10-23T10:22:09.917Z,41.83
2022-10-23T10:25:03.384Z,41.79
2022-10-23T10:27:53.251Z,41.99
2022-10-23T10:30:25.816Z,42.40
2022-10-23T10:33:06.558Z,42.27
2022-10-23T10:35:55.797Z,42.36
2022-10-23T10:38:47.803Z,42.44
2022-10-23T10:41:40.606Z,42.71
2022-10-23T10:44:46.554Z,43.09
2022-10-23T10:47:21.385Z,43.65
2022-10-23T10:49:56.727Z,43.51
2022-10-23T10:53:13.199Z,44.04
2022-10-23T10:55:47.224Z,43.80
2022-10-23T10:58:25.374Z,43.64
2022-10-23T11:00:59.336Z,43.58
2022-10-23T11:03:34.828Z,43.63
2022-10-23T11:06:10.748Z,43.88
2022-10-23T11:08:56.286Z,44.43
2022-10-23T11:11:33.545Z,44.49
2022-10-23T11:14:02.325Z,44.76
2022-10-23T11:16:40.016Z,44.66
2022-10-23T11:19:26.909Z,45.16
2022-10-23T11:23:16.811Z,44.82
2022-10-23T11:25:38.736Z,45.01
2022-10-23T11:28:15.036Z,44.70
2022-10-23T11:31:08.212Z,44.85
2022-10-23T11:34:21.746Z,44.86
2022-10-23T11:36:56.148Z,44.82
2022-10-23T11:39:32.573Z,44.61
2022-10-23T11:42:07.991Z,45.33
2022-10-23T11:44:37.102Z,45.35
2022-10-23T11:47:25.962Z,45.56
2022-10-23T11:50:08.272Z,45.79
2022-10-23T11:52:45.535Z,45.76
2022-10-23T11:55:21.573Z,46.14
2022-10-23T11:58:07.501Z,46.19
2022-10-23T12:00:40.719Z,46.22
2022-10-23T12:03:20.719Z,46.00
2022-10-23T12:08:32.886Z,46.46
2022-10-23T12:11:00.474Z,46.70
2022-10-23T12:13:39.653Z,46.82
2022-10-23T12:16:08.322Z,47.16
2022-10-23T12:18:56.639Z,46.69
2022-10-23T12:21:28.730Z,46.57
2022-10-23T12:24:14.522Z,46.38
2022-10-23T12:27:06.035Z,46.67
2022-10-23T12:29:56.507Z,46.56
2022-10-23T12:32:33.690Z,46.26
2022-10-23T12:35:49.223Z,46.55
2022-10-23T12:38:22.553Z,46.54
2022-10-23T12:40:56.926Z,46.30
2022-10-23T12:43:36.528Z,46.82
2022-10-23T12:46:17.898Z,46.97
2022-10-23T12:48:50.831Z,47.14
2022-10-23T12:51:25.118Z,47.10
2022-10-23T12:53:52.542Z,46.99
2022-10-23T12:56:20.557Z,47.54
2022-10-23T12:58:52.047Z,47.79
2022-10-23T13:01:28.657Z,47.19
2022-10-23T13:04:13.898Z,47.71
2022-10-23T13:06:41.707Z,47.68
2022-10-23T13:09:20.450Z,48.50
2022-10-23T13:12:09.574Z,48.21
2022-10-23T13:14:57.493Z,48.77
2022-10-23T13:17:38.964Z,48.56
2022-10-23T13:20:18.532Z,49.07
2022-10-23T13:22:48.920Z,49.26
2022-10-23T13:25:25.094Z,49.27
2022-10-23T13:28:03.582Z,49.54
2022-10-23T13:30:33.902Z,49.56
2022-10-23T13:33:01.454Z,50.50
2022-10-23T13:35:28.893Z,50.58
2022-10-23T13:37:56.379Z,50.49
2022-10-23T13:40:28.214Z,51.07
2022-10-23T13:42:57.508Z,50.86
2022-10-23T13:45:26.850Z,51.33
2022-10-23T13:47:54.297Z,51.54
2022-10-23T13:50:21.854Z,51.64
2022-10-23T13:52:49.314Z,51.77
2022-10-23T13:55:25.090Z,52.05
2022-10-23T13:57:52.701Z,51.97
2022-10-23T14:00:23.021Z,52.63
2022-10-23T14:02:51.717Z,53.03
2022-10-23T14:05:19.235Z,52.69
2022-10-23T14:07:46.880Z,53.04
2022-10-23T14:10:14.450Z,53.14
2022-10-23T14:12:43.658Z,52.98
2022-10-23T14:15:12.013Z,53.07
2022-10-23T14:17:39.616Z,52.98
2022-10-23T14:20:08.774Z,53.22
2022-10-23T14:22:36.271Z,53.56
2022-10-23T14:25:06.193Z,53.20
2022-10-23T14:27:33.750Z,53.47
2022-10-23T14:30:01.278Z,53.67
2022-10-23T14:32:28.778Z,53.91
2022-10-23T14:34:56.286Z,53.77
2022-10-23T14:37:26.575Z,54.01
2022-10-23T14:39:53.976Z,53.91
2022-10-23T14:42:21.439Z,54.19
2022-10-23T14:44:50.255Z,54.37
2022-10-23T14:47:21.558Z,54.63
2022-10-23T14:49:56.417Z,54.69
2022-10-23T14:52:24.809Z,55.17
2022-10-23T14:54:53.662Z,55.30
2022-10-23T15:00:05.839Z,55.50
2022-10-23T15:02:33.337Z,55.38
2022-10-23T15:07:41.990Z,54.87
2022-10-23T15:10:10.384Z,55.18
2022-10-23T15:12:39.477Z,55.07
2022-10-23T15:15:08.211Z,55.01
2022-10-23T15:17:37.360Z,55.07
2022-10-23T15:20:09.055Z,54.93
2022-10-23T15:22:36.562Z,55.36
2022-10-23T15:25:04.194Z,55.33
2022-10-23T15:30:18.027Z,55.57
2022-10-23T15:32:45.515Z,55.58
2022-10-23T15:35:12.942Z,55.80
2022-10-23T15:37:40.479Z,55.73
2022-10-23T15:40:08.719Z,55.81
2022-10-23T15:42:36.181Z,55.94
2022-10-23T15:45:03.847Z,56.12
2022-10-23T15:47:31.387Z,56.06
2022-10-23T15:49:58.791Z,56.09
2022-10-23T15:52:26.210Z,56.44
2022-10-23T15:54:54.679Z,56.45
2022-10-23T15:57:22.082Z,56.44
2022-10-23T15:59:51.290Z,56.58
2022-10-23T16:02:18.866Z,56.73
2022-10-23T16:04:46.440Z,56.88
2022-10-23T16:07:13.822Z,56.58
2022-10-23T16:09:41.318Z,57.05
2022-10-23T16:12:08.962Z,57.16
2022-10-23T16:14:36.366Z,57.18
2022-10-23T16:17:04.056Z,57.38
2022-10-23T16:19:31.492Z,57.51
2022-10-23T16:21:58.906Z,57.84
2022-10-23T16:24:26.590Z,57.82
2022-10-23T16:26:56.601Z,57.84
2022-10-23T16:29:25.947Z,57.86
2022-10-23T16:31:54.678Z,58.07
2022-10-23T16:34:22.953Z,58.17
2022-10-23T16:36:50.525Z,58.15
2022-10-23T16:39:28.751Z,58.51
2022-10-23T16:42:34.748Z,58.53
2022-10-23T16:45:11.308Z,58.71
2022-10-23T16:47:38.815Z,58.83
2022-10-23T16:50:06.522Z,58.67
2022-10-23T16:52:39.728Z,58.80
2022-10-23T16:55:08.031Z,58.94
2022-10-23T16:57:36.746Z,58.68
2022-10-23T17:00:09.314Z,58.68
2022-10-23T17:02:37.985Z,58.80
2022-10-23T17:05:06.050Z,58.97
2022-10-23T17:07:33.490Z,58.96
2022-10-23T17:10:00.890Z,58.79
2022-10-23T17:12:28.343Z,58.91
2022-10-23T17:14:55.748Z,59.19
2022-10-23T17:17:23.207Z,59.31
2022-10-23T17:19:50.653Z,59.30
2022-10-23T17:22:18.138Z,59.32
2022-10-23T17:24:48.718Z,59.83
2022-10-23T17:27:19.410Z,59.39
2022-10-23T17:29:49.666Z,59.71
2022-10-23T17:32:17.226Z,59.96
2022-10-23T17:34:44.871Z,60.48
2022-10-23T17:37:14.633Z,60.50
2022-10-23T17:39:42.146Z,60.35
2022-10-23T17:42:09.897Z,60.41
2022-10-23T17:44:37.344Z,60.29
2022-10-23T17:47:05.003Z,60.43
2022-10-23T17:49:32.535Z,60.87
2022-10-23T17:52:00.065Z,61.17
2022-10-23T17:54:27.960Z,60.94
2022-10-23T17:56:55.607Z,60.63
2022-10-23T17:59:23.101Z,61.09
2022-10-23T18:01:51.436Z,60.82
2022-10-23T18:04:21.111Z,61.36
2022-10-23T18:06:52.954Z,61.22
2022-10-23T18:09:21.606Z,61.39
2022-10-23T18:11:50.396Z,61.02
2022-10-23T18:14:19.421Z,61.40
2022-10-23T18:16:47.109Z,60.94
2022-10-23T18:19:18.393Z,61.34
2022-10-23T18:21:46.903Z,61.46
2022-10-23T18:24:14.811Z,61.85
2022-10-23T18:26:43.073Z,61.89
2022-10-23T18:29:15.783Z,61.83
2022-10-23T18:31:43.690Z,62.11
2022-10-23T18:34:20.807Z,61.90
2022-10-23T18:36:49.585Z,62.17
2022-10-23T18:39:22.489Z,62.31
2022-10-23T18:41:56.771Z,62.11
2022-10-23T18:44:27.243Z,62.17
2022-10-23T18:46:57.134Z,62.69
2022-10-23T18:49:27.236Z,62.65
2022-10-23T18:51:54.916Z,62.63
2022-10-23T18:54:22.691Z,62.78
2022-10-23T18:56:50.152Z,63.01
2022-10-23T18:59:19.807Z,62.92
2022-10-23T19:01:47.692Z,63.72
2022-10-23T19:04:18.029Z,63.42
2022-10-23T19:06:50.200Z,63.42
2022-10-23T19:09:18.077Z,63.66
2022-10-23T19:11:45.759Z,63.96
2022-10-23T19:14:13.272Z,63.96
2022-10-23T19:16:43.211Z,64.26
2022-10-23T19:19:23.335Z,64.61
2022-10-23T19:21:51.818Z,64.22
2022-10-23T19:24:35.937Z,64.64
2022-10-23T19:27:03.905Z,65.27
2022-10-23T19:29:32.135Z,64.55
2022-10-23T19:32:00.463Z,64.91
2022-10-23T19:34:28.335Z,65.33
2022-10-23T19:36:56.022Z,65.11
2022-10-23T19:39:25.313Z,65.34
2022-10-23T19:41:53.691Z,65.46
2022-10-23T19:44:21.807Z,65.42
2022-10-23T19:46:49.658Z,65.29
2022-10-23T19:49:18.270Z,65.19
2022-10-23T19:51:50.950Z,65.36
2022-10-23T19:54:20.696Z,64.86
2022-10-23T19:56:48.785Z,65.26
2022-10-23T19:59:16.665Z,65.67
2022-10-23T20:01:47.816Z,65.36
2022-10-23T20:04:18.551Z,65.44
2022-10-23T20:06:46.824Z,65.52
2022-10-23T20:09:14.485Z,65.30
2022-10-23T20:11:43.738Z,65.40
2022-10-23T20:14:12.145Z,65.62
2022-10-23T20:16:40.133Z,65.41
2022-10-23T20:19:10.401Z,65.40
2022-10-23T20:21:40.180Z,65.53
2022-10-23T20:24:08.948Z,65.56
2022-10-23T20:26:44.956Z,65.75
2022-10-23T20:29:12.902Z,65.12
2022-10-23T20:31:40.468Z,65.86
2022-10-23T20:34:08.444Z,65.95
2022-10-23T20:36:45.451Z,66.13
2022-10-23T20:39:18.759Z,65.91
2022-10-23T20:41:48.956Z,66.09
2022-10-23T20:44:18.339Z,66.32
2022-10-23T20:46:46.119Z,65.84
2022-10-23T20:49:14.641Z,66.10
2022-10-23T20:51:42.839Z,66.40
2022-10-23T20:54:10.463Z,66.43
2022-10-23T20:56:39.239Z,65.93
2022-10-23T20:59:12.126Z,66.12
2022-10-23T21:01:41.898Z,66.15
2022-10-23T21:04:14.397Z,66.25
2022-10-23T21:06:57.653Z,65.90
2022-10-23T21:09:31.025Z,66.00
2022-10-23T21:11:58.511Z,65.96
2022-10-23T21:14:27.465Z,65.74
2022-10-23T21:16:54.850Z,66.02
2022-10-23T21:19:22.354Z,65.81
2022-10-23T21:21:49.735Z,65.99
2022-10-23T21:24:17.582Z,65.71
2022-10-23T21:26:45.768Z,65.88
2022-10-23T21:29:18.945Z,66.08
2022-10-23T21:31:53.539Z,65.87
2022-10-23T21:34:21.178Z,65.80
2022-10-23T21:37:11.224Z,65.53
2022-10-23T21:39:36.088Z,65.66
2022-10-23T21:42:06.017Z,66.04
2022-10-23T21:44:33.535Z,65.76
2022-10-23T21:47:01.021Z,65.76
2022-10-23T21:49:28.503Z,65.50
2022-10-23T21:51:55.928Z,65.37
2022-10-23T21:54:23.585Z,65.52
2022-10-23T21:56:54.103Z,65.35
2022-10-23T21:59:25.228Z,65.56
2022-10-23T22:01:54.270Z,65.58
2022-10-23T22:04:22.648Z,65.61
2022-10-23T22:06:50.609Z,65.65
2022-10-23T22:09:20.222Z,65.66
2022-10-23T22:11:50.522Z,65.67
2022-10-23T22:14:18.456Z,65.40
2022-10-23T22:16:46.293Z,65.83
2022-10-23T22:19:15.883Z,65.59
2022-10-23T22:21:43.739Z,65.67
2022-10-23T22:24:11.266Z,65.41
2022-10-23T22:26:45.101Z,65.48
2022-10-23T22:29:15.328Z,65.34
2022-10-23T22:31:45.681Z,65.45
2022-10-23T22:34:47.970Z,65.47
2022-10-23T22:37:13.969Z,65.35
2022-10-23T22:39:41.802Z,65.53
2022-10-23T22:42:09.733Z,65.32
2022-10-23T22:44:37.165Z,65.58
2022-10-23T22:47:04.772Z,65.50
2022-10-23T22:49:32.257Z,65.56
2022-10-23T22:52:02.744Z,65.46
2022-10-23T22:54:31.668Z,65.15
2022-10-23T22:56:59.262Z,65.13
2022-10-23T22:59:26.792Z,64.73
2022-10-23T23:01:54.801Z,65.00
2022-10-23T23:04:39.001Z,64.95
2022-10-23T23:07:13.109Z,64.91
2022-10-23T23:09:42.837Z,65.03
2022-10-23T23:12:13.107Z,65.09
2022-10-23T23:14:41.188Z,65.27
2022-10-23T23:17:12.152Z,65.10
2022-10-23T23:19:39.905Z,65.27
2022-10-23T23:22:07.363Z,64.89
2022-10-23T23:24:35.071Z,64.97
2022-10-23T23:27:02.609Z,65.23
2022-10-23T23:29:32.754Z,64.54
2022-10-23T23:32:00.192Z,64.86
2022-10-23T23:34:29.033Z,64.92
2022-10-23T23:36:56.477Z,64.99
2022-10-23T23:39:24.112Z,64.88
2022-10-23T23:41:51.563Z,65.12
2022-10-23T23:44:18.954Z,65.07
2022-10-23T23:46:46.362Z,64.73
2022-10-23T23:49:13.828Z,65.02
2022-10-23T23:51:41.346Z,64.85
2022-10-23T23:54:08.843Z,64.61
2022-10-23T23:56:36.293Z,64.69
2022-10-23T23:59:03.797Z,64.56
